sensor_id;sensor_type;location;lat;lon;timestamp;P1;durP1;ratioP1;P2;durP2;ratioP2
16029;SDS011;34770;49.272;11.070;2022-08-18T00:02:25;4.93;;;3.67;;
16029;SDS011;34770;49.272;11.070;2022-08-18T00:04:54;5.63;;;3.95;;
16029;SDS011;34770;49.272;11.070;2022-08-18T00:07:24;9.63;;;3.60;;
16029;SDS011;34770;49.272;11.070;2022-08-18T00:09:53;7.78;;;3.88;;
16029;SDS011;34770;49.272;11.070;2022-08-18T00:12:23;7.40;;;3.97;;
16029;SDS011;34770;49.272;11.070;2022-08-18T00:14:51;5.63;;;3.65;;
16029;SDS011;34770;49.272;11.070;2022-08-18T00:17:18;8.85;;;4.07;;
16029;SDS011;34770;49.272;11.070;2022-08-18T00:19:44;5.68;;;4.10;;
16029;SDS011;34770;49.272;11.070;2022-08-18T00:22:11;8.48;;;4.10;;
16029;SDS011;34770;49.272;11.070;2022-08-18T00:24:38;8.70;;;4.40;;
16029;SDS011;34770;49.272;11.070;2022-08-18T00:27:04;4.55;;;3.92;;
16029;SDS011;34770;49.272;11.070;2022-08-18T00:29:30;6.82;;;3.65;;
16029;SDS011;34770;49.272;11.070;2022-08-18T00:31:55;6.22;;;4.22;;
16029;SDS011;34770;49.272;11.070;2022-08-18T00:34:21;4.10;;;3.67;;
16029;SDS011;34770;49.272;11.070;2022-08-18T00:36:47;6.13;;;4.00;;
16029;SDS011;34770;49.272;11.070;2022-08-18T00:39:14;7.95;;;4.05;;
16029;SDS011;34770;49.272;11.070;2022-08-18T00:41:40;5.47;;;4.78;;
16029;SDS011;34770;49.272;11.070;2022-08-18T00:44:05;8.73;;;5.53;;
16029;SDS011;34770;49.272;11.070;2022-08-18T00:46:32;5.47;;;4.60;;
16029;SDS011;34770;49.272;11.070;2022-08-18T00:48:59;7.40;;;4.55;;
16029;SDS011;34770;49.272;11.070;2022-08-18T00:56:30;7.22;;;5.30;;
16029;SDS011;34770;49.272;11.070;2022-08-18T01:01:57;6.68;;;6.05;;
16029;SDS011;34770;49.272;11.070;2022-08-18T01:04:34;10.85;;;6.88;;
16029;SDS011;34770;49.272;11.070;2022-08-18T01:09:59;8.30;;;6.88;;
16029;SDS011;34770;49.272;11.070;2022-08-18T01:12:34;9.88;;;6.88;;
16029;SDS011;34770;49.272;11.070;2022-08-18T02:40:37;11.52;;;9.18;;
16029;SDS011;34770;49.272;11.070;2022-08-18T02:43:17;9.52;;;8.63;;
16029;SDS011;34770;49.272;11.070;2022-08-18T02:46:01;10.27;;;9.25;;
16029;SDS011;34770;49.272;11.070;2022-08-18T02:48:44;8.98;;;8.07;;
16029;SDS011;34770;49.272;11.070;2022-08-18T02:51:16;9.50;;;8.60;;
16029;SDS011;34770;49.272;11.070;2022-08-18T02:53:43;9.90;;;8.95;;
16029;SDS011;34770;49.272;11.070;2022-08-18T02:56:11;8.70;;;7.90;;
16029;SDS011;34770;49.272;11.070;2022-08-18T02:58:50;9.68;;;8.68;;
16029;SDS011;34770;49.272;11.070;2022-08-18T03:01:19;10.70;;;8.63;;
16029;SDS011;34770;49.272;11.070;2022-08-18T03:03:46;8.55;;;7.72;;
16029;SDS011;34770;49.272;11.070;2022-08-18T03:06:12;9.23;;;8.18;;
16029;SDS011;34770;49.272;11.070;2022-08-18T03:08:37;11.48;;;8.20;;
16029;SDS011;34770;49.272;11.070;2022-08-18T03:11:27;8.13;;;7.45;;
16029;SDS011;34770;49.272;11.070;2022-08-18T03:14:07;8.55;;;7.75;;
16029;SDS011;34770;49.272;11.070;2022-08-18T03:16:32;10.30;;;8.43;;
16029;SDS011;34770;49.272;11.070;2022-08-18T03:18:59;9.35;;;8.35;;
16029;SDS011;34770;49.272;11.070;2022-08-18T03:21:26;8.30;;;7.30;;
16029;SDS011;34770;49.272;11.070;2022-08-18T03:23:54;8.00;;;7.00;;
16029;SDS011;34770;49.272;11.070;2022-08-18T03:26:21;9.25;;;8.27;;
16029;SDS011;34770;49.272;11.070;2022-08-18T03:28:48;9.65;;;8.65;;
16029;SDS011;34770;49.272;11.070;2022-08-18T03:31:17;9.52;;;8.20;;
16029;SDS011;34770;49.272;11.070;2022-08-18T03:33:43;8.98;;;8.07;;
16029;SDS011;34770;49.272;11.070;2022-08-18T03:36:11;9.52;;;8.63;;
16029;SDS011;34770;49.272;11.070;2022-08-18T03:38:40;9.50;;;8.60;;
16029;SDS011;34770;49.272;11.070;2022-08-18T03:46:36;10.95;;;8.02;;
16029;SDS011;34770;49.272;11.070;2022-08-18T03:49:01;9.48;;;8.45;;
16029;SDS011;34770;49.272;11.070;2022-08-18T03:51:29;9.68;;;8.80;;
16029;SDS011;34770;49.272;11.070;2022-08-18T03:54:00;9.23;;;8.32;;
16029;SDS011;34770;49.272;11.070;2022-08-18T03:56:28;10.93;;;8.63;;
16029;SDS011;34770;49.272;11.070;2022-08-18T03:58:58;9.40;;;8.50;;
16029;SDS011;34770;49.272;11.070;2022-08-18T04:01:30;11.50;;;9.35;;
16029;SDS011;34770;49.272;11.070;2022-08-18T04:04:00;11.68;;;8.25;;
16029;SDS011;34770;49.272;11.070;2022-08-18T04:06:29;11.25;;;9.93;;
16029;SDS011;34770;49.272;11.070;2022-08-18T04:08:59;10.48;;;9.38;;
16029;SDS011;34770;49.272;11.070;2022-08-18T04:11:29;10.13;;;9.13;;
16029;SDS011;34770;49.272;11.070;2022-08-18T04:13:56;13.57;;;9.65;;
16029;SDS011;34770;49.272;11.070;2022-08-18T04:16:22;10.77;;;9.70;;
16029;SDS011;34770;49.272;11.070;2022-08-18T04:18:52;11.30;;;10.05;;
16029;SDS011;34770;49.272;11.070;2022-08-18T04:21:17;11.82;;;9.27;;
16029;SDS011;34770;49.272;11.070;2022-08-18T04:23:43;11.13;;;10.13;;
16029;SDS011;34770;49.272;11.070;2022-08-18T04:26:09;10.63;;;9.63;;
16029;SDS011;34770;49.272;11.070;2022-08-18T04:28:37;10.77;;;9.70;;
16029;SDS011;34770;49.272;11.070;2022-08-18T04:31:10;11.25;;;10.13;;
16029;SDS011;34770;49.272;11.070;2022-08-18T04:33:37;11.93;;;9.60;;
16029;SDS011;34770;49.272;11.070;2022-08-18T04:36:07;10.60;;;9.50;;
16029;SDS011;34770;49.272;11.070;2022-08-18T04:38:34;10.68;;;9.68;;
16029;SDS011;34770;49.272;11.070;2022-08-18T04:41:00;10.73;;;9.73;;
16029;SDS011;34770;49.272;11.070;2022-08-18T04:43:27;10.15;;;9.10;;
16029;SDS011;34770;49.272;11.070;2022-08-18T04:45:54;12.13;;;9.43;;
16029;SDS011;34770;49.272;11.070;2022-08-18T04:48:25;11.95;;;10.07;;
16029;SDS011;34770;49.272;11.070;2022-08-18T04:50:52;10.73;;;9.77;;
16029;SDS011;34770;49.272;11.070;2022-08-18T04:53:17;11.82;;;9.77;;
16029;SDS011;34770;49.272;11.070;2022-08-18T04:56:19;11.15;;;10.05;;
16029;SDS011;34770;49.272;11.070;2022-08-18T04:59:01;10.98;;;9.88;;
16029;SDS011;34770;49.272;11.070;2022-08-18T05:01:31;12.82;;;9.63;;
16029;SDS011;34770;49.272;11.070;2022-08-18T05:04:00;10.70;;;9.60;;
16029;SDS011;34770;49.272;11.070;2022-08-18T05:06:26;11.43;;;10.23;;
16029;SDS011;34770;49.272;11.070;2022-08-18T05:08:53;12.35;;;10.32;;
16029;SDS011;34770;49.272;11.070;2022-08-18T05:11:21;10.82;;;9.82;;
16029;SDS011;34770;49.272;11.070;2022-08-18T05:13:48;12.07;;;10.30;;
16029;SDS011;34770;49.272;11.070;2022-08-18T05:16:14;10.65;;;9.55;;
16029;SDS011;34770;49.272;11.070;2022-08-18T05:18:40;12.60;;;10.43;;
16029;SDS011;34770;49.272;11.070;2022-08-18T05:21:06;12.07;;;9.82;;
16029;SDS011;34770;49.272;11.070;2022-08-18T05:23:35;12.38;;;10.75;;
16029;SDS011;34770;49.272;11.070;2022-08-18T05:26:01;12.50;;;11.20;;
16029;SDS011;34770;49.272;11.070;2022-08-18T05:28:28;12.32;;;11.00;;
16029;SDS011;34770;49.272;11.070;2022-08-18T05:30:54;12.30;;;10.45;;
16029;SDS011;34770;49.272;11.070;2022-08-18T05:33:21;11.70;;;10.45;;
16029;SDS011;34770;49.272;11.070;2022-08-18T05:35:49;12.35;;;10.80;;
16029;SDS011;34770;49.272;11.070;2022-08-18T05:43:38;11.50;;;10.48;;
16029;SDS011;34770;49.272;11.070;2022-08-18T05:46:05;11.43;;;10.32;;
16029;SDS011;34770;49.272;11.070;2022-08-18T05:48:32;12.65;;;11.32;;
16029;SDS011;34770;49.272;11.070;2022-08-18T05:51:00;12.15;;;11.02;;
16029;SDS011;34770;49.272;11.070;2022-08-18T05:53:32;13.82;;;11.77;;
16029;SDS011;34770;49.272;11.070;2022-08-18T05:56:17;11.50;;;10.48;;
16029;SDS011;34770;49.272;11.070;2022-08-18T05:59:06;11.73;;;10.52;;
16029;SDS011;34770;49.272;11.070;2022-08-18T06:01:37;11.13;;;10.02;;
16029;SDS011;34770;49.272;11.070;2022-08-18T06:04:19;13.45;;;11.45;;
16029;SDS011;34770;49.272;11.070;2022-08-18T06:06:47;12.07;;;10.75;;
16029;SDS011;34770;49.272;11.070;2022-08-18T06:09:20;12.30;;;10.38;;
16029;SDS011;34770;49.272;11.070;2022-08-18T06:11:50;11.73;;;10.52;;
16029;SDS011;34770;49.272;11.070;2022-08-18T06:14:19;11.80;;;10.45;;
16029;SDS011;34770;49.272;11.070;2022-08-18T06:16:48;14.93;;;10.20;;
16029;SDS011;34770;49.272;11.070;2022-08-18T06:24:49;11.27;;;9.88;;
16029;SDS011;34770;49.272;11.070;2022-08-18T06:30:11;14.88;;;10.00;;
16029;SDS011;34770;49.272;11.070;2022-08-18T06:35:23;11.57;;;10.32;;
16029;SDS011;34770;49.272;11.070;2022-08-18T06:40:41;9.68;;;8.77;;
16029;SDS011;34770;49.272;11.070;2022-08-18T06:43:08;11.10;;;9.25;;
16029;SDS011;34770;49.272;11.070;2022-08-18T06:45:39;10.27;;;9.38;;
16029;SDS011;34770;49.272;11.070;2022-08-18T06:53:21;10.48;;;9.48;;
16029;SDS011;34770;49.272;11.070;2022-08-18T06:59:17;10.73;;;8.88;;
16029;SDS011;34770;49.272;11.070;2022-08-18T07:01:43;10.10;;;8.70;;
16029;SDS011;34770;49.272;11.070;2022-08-18T07:04:28;8.07;;;7.28;;
16029;SDS011;34770;49.272;11.070;2022-08-18T07:06:55;9.63;;;8.23;;
16029;SDS011;34770;49.272;11.070;2022-08-18T07:09:22;8.50;;;7.65;;
16029;SDS011;34770;49.272;11.070;2022-08-18T07:12:03;8.02;;;7.20;;
16029;SDS011;34770;49.272;11.070;2022-08-18T07:14:30;7.63;;;6.93;;
16029;SDS011;34770;49.272;11.070;2022-08-18T07:17:06;8.93;;;8.02;;
16029;SDS011;34770;49.272;11.070;2022-08-18T07:19:34;9.35;;;7.78;;
16029;SDS011;34770;49.272;11.070;2022-08-18T07:24:33;7.75;;;6.95;;
16029;SDS011;34770;49.272;11.070;2022-08-18T07:27:04;9.75;;;8.75;;
16029;SDS011;34770;49.272;11.070;2022-08-18T07:29:32;7.93;;;7.13;;
16029;SDS011;34770;49.272;11.070;2022-08-18T07:32:13;10.07;;;8.20;;
16029;SDS011;34770;49.272;11.070;2022-08-18T07:34:47;8.73;;;7.80;;
16029;SDS011;34770;49.272;11.070;2022-08-18T07:37:17;12.13;;;7.45;;
16029;SDS011;34770;49.272;11.070;2022-08-18T07:39:59;8.88;;;7.70;;
16029;SDS011;34770;49.272;11.070;2022-08-18T07:45:21;7.40;;;6.65;;
16029;SDS011;34770;49.272;11.070;2022-08-18T07:47:55;8.63;;;7.68;;
16029;SDS011;34770;49.272;11.070;2022-08-18T07:50:25;8.75;;;7.03;;
16029;SDS011;34770;49.272;11.070;2022-08-18T07:55:28;7.68;;;6.45;;
16029;SDS011;34770;49.272;11.070;2022-08-18T08:00:38;10.98;;;7.10;;
16029;SDS011;34770;49.272;11.070;2022-08-18T08:03:28;7.45;;;6.72;;
16029;SDS011;34770;49.272;11.070;2022-08-18T08:11:34;7.43;;;6.70;;
16029;SDS011;34770;49.272;11.070;2022-08-18T08:17:06;6.53;;;5.93;;
16029;SDS011;34770;49.272;11.070;2022-08-18T08:19:46;8.60;;;6.07;;
16029;SDS011;34770;49.272;11.070;2022-08-18T08:33:57;7.97;;;6.45;;
16029;SDS011;34770;49.272;11.070;2022-08-18T08:36:40;9.23;;;7.07;;
16029;SDS011;34770;49.272;11.070;2022-08-18T08:50:24;9.35;;;7.93;;
16029;SDS011;34770;49.272;11.070;2022-08-18T08:52:49;9.68;;;7.57;;
16029;SDS011;34770;49.272;11.070;2022-08-18T08:55:23;8.23;;;6.47;;
16029;SDS011;34770;49.272;11.070;2022-08-18T08:57:54;6.93;;;6.30;;
16029;SDS011;34770;49.272;11.070;2022-08-18T09:00:26;9.93;;;7.65;;
16029;SDS011;34770;49.272;11.070;2022-08-18T09:03:05;6.53;;;5.90;;
16029;SDS011;34770;49.272;11.070;2022-08-18T09:11:11;7.53;;;6.72;;
16029;SDS011;34770;49.272;11.070;2022-08-18T09:30:43;10.55;;;7.40;;
16029;SDS011;34770;49.272;11.070;2022-08-18T09:33:17;13.05;;;6.57;;
16029;SDS011;34770;49.272;11.070;2022-08-18T09:38:31;7.40;;;6.68;;
16029;SDS011;34770;49.272;11.070;2022-08-18T09:41:20;7.82;;;7.03;;
16029;SDS011;34770;49.272;11.070;2022-08-18T09:44:06;8.70;;;6.18;;
16029;SDS011;34770;49.272;11.070;2022-08-18T09:51:56;6.97;;;6.38;;
16029;SDS011;34770;49.272;11.070;2022-08-18T09:54:52;6.20;;;5.57;;
16029;SDS011;34770;49.272;11.070;2022-08-18T10:07:51;8.60;;;6.43;;
16029;SDS011;34770;49.272;11.070;2022-08-18T10:10:40;6.50;;;5.85;;
16029;SDS011;34770;49.272;11.070;2022-08-18T10:13:18;10.23;;;6.13;;
16029;SDS011;34770;49.272;11.070;2022-08-18T10:22:01;9.25;;;6.53;;
16029;SDS011;34770;49.272;11.070;2022-08-18T10:24:34;8.45;;;7.15;;
16029;SDS011;34770;49.272;11.070;2022-08-18T10:27:04;6.82;;;6.10;;
16029;SDS011;34770;49.272;11.070;2022-08-18T10:29:43;7.55;;;6.40;;
16029;SDS011;34770;49.272;11.070;2022-08-18T10:44:43;6.85;;;6.25;;
16029;SDS011;34770;49.272;11.070;2022-08-18T10:47:25;7.88;;;6.60;;
16029;SDS011;34770;49.272;11.070;2022-08-18T10:49:53;7.40;;;6.32;;
16029;SDS011;34770;49.272;11.070;2022-08-18T10:52:26;6.47;;;5.88;;
16029;SDS011;34770;49.272;11.070;2022-08-18T10:55:07;6.63;;;5.88;;
16029;SDS011;34770;49.272;11.070;2022-08-18T10:57:48;7.28;;;5.78;;
16029;SDS011;34770;49.272;11.070;2022-08-18T11:00:19;9.82;;;5.20;;
16029;SDS011;34770;49.272;11.070;2022-08-18T11:03:07;6.95;;;5.05;;
16029;SDS011;34770;49.272;11.070;2022-08-18T11:05:41;7.57;;;6.10;;
16029;SDS011;34770;49.272;11.070;2022-08-18T11:08:09;6.35;;;5.72;;
16029;SDS011;34770;49.272;11.070;2022-08-18T11:10:45;5.75;;;5.25;;
16029;SDS011;34770;49.272;11.070;2022-08-18T11:18:50;8.23;;;5.78;;
16029;SDS011;34770;49.272;11.070;2022-08-18T11:21:24;5.55;;;5.03;;
16029;SDS011;34770;49.272;11.070;2022-08-18T11:26:40;6.85;;;5.18;;
16029;SDS011;34770;49.272;11.070;2022-08-18T11:29:29;6.72;;;5.22;;
16029;SDS011;34770;49.272;11.070;2022-08-18T11:34:58;6.30;;;5.70;;
16029;SDS011;34770;49.272;11.070;2022-08-18T11:37:46;7.97;;;6.10;;
16029;SDS011;34770;49.272;11.070;2022-08-18T11:42:47;9.48;;;5.88;;
16029;SDS011;34770;49.272;11.070;2022-08-18T11:45:20;8.20;;;5.82;;
16029;SDS011;34770;49.272;11.070;2022-08-18T11:56:46;8.52;;;5.43;;
16029;SDS011;34770;49.272;11.070;2022-08-18T12:01:59;8.50;;;5.60;;
16029;SDS011;34770;49.272;11.070;2022-08-18T12:04:31;6.45;;;5.85;;
16029;SDS011;34770;49.272;11.070;2022-08-18T12:07:05;7.07;;;6.10;;
16029;SDS011;34770;49.272;11.070;2022-08-18T12:09:41;8.13;;;5.60;;
16029;SDS011;34770;49.272;11.070;2022-08-18T12:12:18;5.50;;;5.00;;
16029;SDS011;34770;49.272;11.070;2022-08-18T12:14:58;7.93;;;6.25;;
16029;SDS011;34770;49.272;11.070;2022-08-18T12:17:50;6.97;;;6.30;;
16029;SDS011;34770;49.272;11.070;2022-08-18T12:20:16;7.60;;;5.93;;
16029;SDS011;34770;49.272;11.070;2022-08-18T12:22:43;7.72;;;5.70;;
16029;SDS011;34770;49.272;11.070;2022-08-18T12:25:12;5.97;;;5.47;;
16029;SDS011;34770;49.272;11.070;2022-08-18T12:27:40;7.18;;;5.55;;
16029;SDS011;34770;49.272;11.070;2022-08-18T12:30:07;6.15;;;5.55;;
16029;SDS011;34770;49.272;11.070;2022-08-18T12:32:35;6.25;;;5.65;;
16029;SDS011;34770;49.272;11.070;2022-08-18T12:35:07;7.35;;;5.35;;
16029;SDS011;34770;49.272;11.070;2022-08-18T12:37:42;6.30;;;5.45;;
16029;SDS011;34770;49.272;11.070;2022-08-18T12:40:09;7.68;;;6.72;;
16029;SDS011;34770;49.272;11.070;2022-08-18T12:42:36;5.70;;;5.22;;
16029;SDS011;34770;49.272;11.070;2022-08-18T12:45:01;6.28;;;5.18;;
16029;SDS011;34770;49.272;11.070;2022-08-18T12:47:27;8.13;;;5.63;;
16029;SDS011;34770;49.272;11.070;2022-08-18T12:49:54;7.75;;;5.80;;
16029;SDS011;34770;49.272;11.070;2022-08-18T12:52:19;7.57;;;5.53;;
16029;SDS011;34770;49.272;11.070;2022-08-18T12:54:45;6.90;;;5.32;;
16029;SDS011;34770;49.272;11.070;2022-08-18T12:57:20;6.60;;;5.25;;
16029;SDS011;34770;49.272;11.070;2022-08-18T12:59:47;6.82;;;5.45;;
16029;SDS011;34770;49.272;11.070;2022-08-18T13:02:12;10.57;;;5.45;;
16029;SDS011;34770;49.272;11.070;2022-08-18T13:04:38;8.65;;;5.32;;
16029;SDS011;34770;49.272;11.070;2022-08-18T13:07:03;6.70;;;5.30;;
16029;SDS011;34770;49.272;11.070;2022-08-18T13:09:32;6.63;;;5.25;;
16029;SDS011;34770;49.272;11.070;2022-08-18T13:12:00;6.45;;;4.93;;
16029;SDS011;34770;49.272;11.070;2022-08-18T13:14:26;6.18;;;4.72;;
16029;SDS011;34770;49.272;11.070;2022-08-18T13:16:52;5.78;;;5.20;;
16029;SDS011;34770;49.272;11.070;2022-08-18T13:19:18;6.07;;;5.38;;
16029;SDS011;34770;49.272;11.070;2022-08-18T13:21:43;7.13;;;5.05;;
16029;SDS011;34770;49.272;11.070;2022-08-18T13:24:09;5.80;;;5.15;;
16029;SDS011;34770;49.272;11.070;2022-08-18T13:26:36;6.03;;;5.45;;
16029;SDS011;34770;49.272;11.070;2022-08-18T13:29:03;5.53;;;4.88;;
16029;SDS011;34770;49.272;11.070;2022-08-18T13:31:31;5.35;;;4.85;;
16029;SDS011;34770;49.272;11.070;2022-08-18T13:33:57;5.68;;;4.80;;
16029;SDS011;34770;49.272;11.070;2022-08-18T13:36:23;7.65;;;5.18;;
16029;SDS011;34770;49.272;11.070;2022-08-18T13:38:50;5.43;;;4.93;;
16029;SDS011;34770;49.272;11.070;2022-08-18T13:41:18;5.13;;;4.63;;
16029;SDS011;34770;49.272;11.070;2022-08-18T13:43:45;5.55;;;5.05;;
16029;SDS011;34770;49.272;11.070;2022-08-18T13:46:11;5.13;;;4.63;;
16029;SDS011;34770;49.272;11.070;2022-08-18T13:48:40;6.05;;;4.90;;
16029;SDS011;34770;49.272;11.070;2022-08-18T13:51:08;5.78;;;5.25;;
16029;SDS011;34770;49.272;11.070;2022-08-18T13:53:38;6.75;;;4.57;;
16029;SDS011;34770;49.272;11.070;2022-08-18T13:56:05;7.88;;;5.13;;
16029;SDS011;34770;49.272;11.070;2022-08-18T13:58:30;7.45;;;4.47;;
16029;SDS011;34770;49.272;11.070;2022-08-18T14:00:57;5.25;;;4.75;;
16029;SDS011;34770;49.272;11.070;2022-08-18T14:03:25;8.15;;;5.30;;
16029;SDS011;34770;49.272;11.070;2022-08-18T14:05:50;6.40;;;5.32;;
16029;SDS011;34770;49.272;11.070;2022-08-18T14:08:18;9.35;;;5.30;;
16029;SDS011;34770;49.272;11.070;2022-08-18T14:10:45;6.40;;;5.05;;
16029;SDS011;34770;49.272;11.070;2022-08-18T14:13:13;5.97;;;5.00;;
16029;SDS011;34770;49.272;11.070;2022-08-18T14:15:40;8.55;;;5.20;;
16029;SDS011;34770;49.272;11.070;2022-08-18T14:18:06;5.88;;;5.22;;
16029;SDS011;34770;49.272;11.070;2022-08-18T14:20:31;6.07;;;5.30;;
16029;SDS011;34770;49.272;11.070;2022-08-18T14:23:15;7.15;;;5.78;;
16029;SDS011;34770;49.272;11.070;2022-08-18T14:26:07;5.53;;;5.03;;
16029;SDS011;34770;49.272;11.070;2022-08-18T14:28:52;6.95;;;5.45;;
16029;SDS011;34770;49.272;11.070;2022-08-18T14:31:18;6.53;;;5.10;;
16029;SDS011;34770;49.272;11.070;2022-08-18T14:33:44;5.65;;;5.15;;
16029;SDS011;34770;49.272;11.070;2022-08-18T14:36:10;6.70;;;5.35;;
16029;SDS011;34770;49.272;11.070;2022-08-18T14:38:36;7.50;;;5.38;;
16029;SDS011;34770;49.272;11.070;2022-08-18T14:41:03;5.97;;;5.38;;
16029;SDS011;34770;49.272;11.070;2022-08-18T14:43:30;7.15;;;5.68;;
16029;SDS011;34770;49.272;11.070;2022-08-18T14:45:57;5.93;;;5.32;;
16029;SDS011;34770;49.272;11.070;2022-08-18T14:48:23;7.47;;;5.55;;
16029;SDS011;34770;49.272;11.070;2022-08-18T14:50:52;5.75;;;4.90;;
16029;SDS011;34770;49.272;11.070;2022-08-18T14:53:22;5.57;;;5.07;;
16029;SDS011;34770;49.272;11.070;2022-08-18T14:55:50;7.97;;;5.65;;
16029;SDS011;34770;49.272;11.070;2022-08-18T14:58:17;7.15;;;6.15;;
16029;SDS011;34770;49.272;11.070;2022-08-18T15:00:44;6.68;;;5.57;;
16029;SDS011;34770;49.272;11.070;2022-08-18T15:03:09;7.13;;;5.72;;
16029;SDS011;34770;49.272;11.070;2022-08-18T15:05:35;7.10;;;5.88;;
16029;SDS011;34770;49.272;11.070;2022-08-18T15:08:01;5.65;;;5.10;;
16029;SDS011;34770;49.272;11.070;2022-08-18T15:10:27;7.68;;;5.47;;
16029;SDS011;34770;49.272;11.070;2022-08-18T15:12:54;7.03;;;5.70;;
16029;SDS011;34770;49.272;11.070;2022-08-18T15:15:21;6.18;;;5.57;;
16029;SDS011;34770;49.272;11.070;2022-08-18T15:17:48;9.13;;;5.38;;
16029;SDS011;34770;49.272;11.070;2022-08-18T15:20:13;5.35;;;4.90;;
16029;SDS011;34770;49.272;11.070;2022-08-18T15:22:40;8.23;;;5.50;;
16029;SDS011;34770;49.272;11.070;2022-08-18T15:25:25;6.03;;;5.38;;
16029;SDS011;34770;49.272;11.070;2022-08-18T15:27:59;6.30;;;4.80;;
16029;SDS011;34770;49.272;11.070;2022-08-18T15:30:25;7.32;;;5.63;;
16029;SDS011;34770;49.272;11.070;2022-08-18T15:32:50;6.18;;;5.10;;
16029;SDS011;34770;49.272;11.070;2022-08-18T15:35:17;6.22;;;5.57;;
16029;SDS011;34770;49.272;11.070;2022-08-18T15:37:44;9.30;;;5.57;;
16029;SDS011;34770;49.272;11.070;2022-08-18T15:40:15;9.07;;;6.00;;
16029;SDS011;34770;49.272;11.070;2022-08-18T15:42:48;6.60;;;5.60;;
16029;SDS011;34770;49.272;11.070;2022-08-18T15:45:20;6.32;;;5.30;;
16029;SDS011;34770;49.272;11.070;2022-08-18T15:47:50;6.25;;;4.93;;
16029;SDS011;34770;49.272;11.070;2022-08-18T15:50:18;6.00;;;5.25;;
16029;SDS011;34770;49.272;11.070;2022-08-18T15:52:45;7.15;;;5.25;;
16029;SDS011;34770;49.272;11.070;2022-08-18T15:55:20;5.93;;;5.40;;
16029;SDS011;34770;49.272;11.070;2022-08-18T15:57:47;7.03;;;5.18;;
16029;SDS011;34770;49.272;11.070;2022-08-18T16:00:14;7.20;;;6.03;;
16029;SDS011;34770;49.272;11.070;2022-08-18T16:02:43;7.50;;;5.50;;
16029;SDS011;34770;49.272;11.070;2022-08-18T16:05:13;5.43;;;4.78;;
16029;SDS011;34770;49.272;11.070;2022-08-18T16:07:38;6.13;;;5.53;;
16029;SDS011;34770;49.272;11.070;2022-08-18T16:10:07;5.38;;;4.88;;
16029;SDS011;34770;49.272;11.070;2022-08-18T16:12:33;5.32;;;4.57;;
16029;SDS011;34770;49.272;11.070;2022-08-18T16:14:58;6.63;;;5.75;;
16029;SDS011;34770;49.272;11.070;2022-08-18T16:17:24;6.30;;;4.90;;
16029;SDS011;34770;49.272;11.070;2022-08-18T16:19:49;7.05;;;5.00;;
16029;SDS011;34770;49.272;11.070;2022-08-18T16:22:15;6.13;;;5.50;;
16029;SDS011;34770;49.272;11.070;2022-08-18T16:24:40;5.28;;;4.78;;
16029;SDS011;34770;49.272;11.070;2022-08-18T16:27:06;7.68;;;4.95;;
16029;SDS011;34770;49.272;11.070;2022-08-18T16:29:32;6.28;;;4.80;;
16029;SDS011;34770;49.272;11.070;2022-08-18T16:31:58;7.20;;;5.18;;
16029;SDS011;34770;49.272;11.070;2022-08-18T16:34:23;6.32;;;5.10;;
16029;SDS011;34770;49.272;11.070;2022-08-18T16:36:51;8.05;;;5.53;;
16029;SDS011;34770;49.272;11.070;2022-08-18T16:39:16;6.28;;;5.70;;
16029;SDS011;34770;49.272;11.070;2022-08-18T16:41:42;7.85;;;5.78;;
16029;SDS011;34770;49.272;11.070;2022-08-18T16:44:07;9.93;;;5.35;;
16029;SDS011;34770;49.272;11.070;2022-08-18T16:46:53;7.20;;;5.28;;
16029;SDS011;34770;49.272;11.070;2022-08-18T16:49:19;7.72;;;5.40;;
16029;SDS011;34770;49.272;11.070;2022-08-18T16:51:44;6.50;;;5.20;;
16029;SDS011;34770;49.272;11.070;2022-08-18T16:54:10;7.53;;;5.13;;
16029;SDS011;34770;49.272;11.070;2022-08-18T16:56:38;6.88;;;5.05;;
16029;SDS011;34770;49.272;11.070;2022-08-18T16:59:03;6.20;;;5.60;;
16029;SDS011;34770;49.272;11.070;2022-08-18T17:01:47;5.53;;;5.03;;
16029;SDS011;34770;49.272;11.070;2022-08-18T17:04:31;8.73;;;5.95;;
16029;SDS011;34770;49.272;11.070;2022-08-18T17:06:58;6.10;;;5.13;;
16029;SDS011;34770;49.272;11.070;2022-08-18T17:09:25;7.15;;;4.32;;
16029;SDS011;34770;49.272;11.070;2022-08-18T17:11:51;5.57;;;5.07;;
16029;SDS011;34770;49.272;11.070;2022-08-18T17:14:16;8.45;;;5.13;;
16029;SDS011;34770;49.272;11.070;2022-08-18T17:16:42;5.88;;;5.28;;
16029;SDS011;34770;49.272;11.070;2022-08-18T17:19:09;7.10;;;5.38;;
16029;SDS011;34770;49.272;11.070;2022-08-18T17:21:35;5.72;;;5.15;;
16029;SDS011;34770;49.272;11.070;2022-08-18T17:24:03;6.72;;;5.68;;
16029;SDS011;34770;49.272;11.070;2022-08-18T17:29:21;6.57;;;5.82;;
16029;SDS011;34770;49.272;11.070;2022-08-18T17:32:01;5.72;;;5.10;;
16029;SDS011;34770;49.272;11.070;2022-08-18T17:34:30;5.65;;;5.15;;
16029;SDS011;34770;49.272;11.070;2022-08-18T17:36:59;11.77;;;5.20;;
16029;SDS011;34770;49.272;11.070;2022-08-18T17:39:32;7.90;;;5.22;;
16029;SDS011;34770;49.272;11.070;2022-08-18T17:42:02;6.03;;;5.50;;
16029;SDS011;34770;49.272;11.070;2022-08-18T17:44:46;8.50;;;5.97;;
16029;SDS011;34770;49.272;11.070;2022-08-18T17:47:15;6.13;;;5.30;;
16029;SDS011;34770;49.272;11.070;2022-08-18T17:49:45;7.57;;;5.90;;
16029;SDS011;34770;49.272;11.070;2022-08-18T17:52:58;8.48;;;5.50;;
16029;SDS011;34770;49.272;11.070;2022-08-18T17:55:27;9.50;;;6.03;;
16029;SDS011;34770;49.272;11.070;2022-08-18T18:01:07;5.97;;;5.43;;
16029;SDS011;34770;49.272;11.070;2022-08-18T18:03:34;5.95;;;5.45;;
16029;SDS011;34770;49.272;11.070;2022-08-18T18:06:10;6.25;;;5.60;;
16029;SDS011;34770;49.272;11.070;2022-08-18T18:11:26;6.28;;;5.68;;
16029;SDS011;34770;49.272;11.070;2022-08-18T18:14:00;6.15;;;5.30;;
16029;SDS011;34770;49.272;11.070;2022-08-18T18:17:06;6.18;;;5.63;;
16029;SDS011;34770;49.272;11.070;2022-08-18T18:19:39;6.80;;;5.28;;
16029;SDS011;34770;49.272;11.070;2022-08-18T18:22:07;7.20;;;5.45;;
16029;SDS011;34770;49.272;11.070;2022-08-18T18:24:46;6.57;;;5.18;;
16029;SDS011;34770;49.272;11.070;2022-08-18T18:27:26;5.75;;;5.25;;
16029;SDS011;34770;49.272;11.070;2022-08-18T18:29:55;5.85;;;5.28;;
16029;SDS011;34770;49.272;11.070;2022-08-18T18:32:29;5.88;;;5.18;;
16029;SDS011;34770;49.272;11.070;2022-08-18T18:35:15;6.18;;;5.18;;
16029;SDS011;34770;49.272;11.070;2022-08-18T18:38:25;7.20;;;5.40;;
16029;SDS011;34770;49.272;11.070;2022-08-18T18:43:34;6.15;;;5.55;;
16029;SDS011;34770;49.272;11.070;2022-08-18T18:57:02;6.57;;;5.95;;
16029;SDS011;34770;49.272;11.070;2022-08-18T19:08:29;7.28;;;6.57;;
16029;SDS011;34770;49.272;11.070;2022-08-18T19:11:13;9.50;;;6.82;;
16029;SDS011;34770;49.272;11.070;2022-08-18T19:13:47;7.10;;;6.32;;
16029;SDS011;34770;49.272;11.070;2022-08-18T19:16:22;9.20;;;6.93;;
16029;SDS011;34770;49.272;11.070;2022-08-18T19:18:54;8.13;;;7.43;;
16029;SDS011;34770;49.272;11.070;2022-08-18T19:21:24;8.00;;;7.30;;
16029;SDS011;34770;49.272;11.070;2022-08-18T19:23:56;10.70;;;6.70;;
16029;SDS011;34770;49.272;11.070;2022-08-18T19:26:30;9.95;;;8.35;;
16029;SDS011;34770;49.272;11.070;2022-08-18T19:29:09;8.57;;;7.78;;
16029;SDS011;34770;49.272;11.070;2022-08-18T19:31:41;8.65;;;7.47;;
16029;SDS011;34770;49.272;11.070;2022-08-18T19:34:20;8.95;;;8.00;;
16029;SDS011;34770;49.272;11.070;2022-08-18T19:36:50;7.60;;;6.57;;
16029;SDS011;34770;49.272;11.070;2022-08-18T19:39:45;8.50;;;7.07;;
16029;SDS011;34770;49.272;11.070;2022-08-18T19:42:23;8.27;;;7.30;;